createdAt,value
2024-05-09T00:00:36.314Z,9.45
2024-05-09T00:03:07.916Z,8.45
2024-05-09T00:05:35.634Z,8.88
2024-05-09T00:08:02.573Z,8.95
2024-05-09T00:10:35.791Z,8.93
2024-05-09T00:13:05.367Z,9.60
2024-05-09T00:15:33.381Z,9.15
2024-05-09T00:18:00.579Z,9.20
2024-05-09T00:20:35.308Z,9.85
2024-05-09T00:23:06.937Z,9.10
2024-05-09T00:25:33.947Z,9.55
2024-05-09T00:28:00.639Z,8.45
2024-05-09T00:30:33.667Z,9.30
2024-05-09T00:33:03.197Z,9.35
2024-05-09T00:35:30.568Z,9.55
2024-05-09T00:37:57.378Z,10.45
2024-05-09T00:40:34.793Z,10.23
2024-05-09T00:43:06.225Z,9.23
2024-05-09T00:45:34.683Z,9.32
2024-05-09T00:48:05.127Z,9.25
2024-05-09T00:50:36.795Z,9.30
2024-05-09T00:53:06.392Z,9.40
2024-05-09T00:55:34.820Z,10.00
2024-05-09T00:58:02.611Z,10.00
2024-05-09T01:00:36.039Z,10.02
2024-05-09T01:03:06.446Z,9.93
2024-05-09T01:05:34.955Z,10.30
2024-05-09T01:08:02.815Z,9.70
2024-05-09T01:10:34.450Z,9.40
2024-05-09T01:13:03.553Z,9.15
2024-05-09T01:15:30.185Z,8.35
2024-05-09T01:17:57.662Z,9.25
2024-05-09T01:20:36.405Z,9.20
2024-05-09T01:23:09.581Z,10.00
2024-05-09T01:25:36.788Z,9.88
2024-05-09T01:28:03.510Z,10.25
2024-05-09T01:30:34.873Z,9.43
2024-05-09T01:33:04.976Z,9.20
2024-05-09T01:35:32.478Z,10.23
2024-05-09T01:37:59.148Z,10.30
2024-05-09T01:40:36.112Z,10.63
2024-05-09T01:43:05.642Z,10.25
2024-05-09T01:45:32.215Z,9.75
2024-05-09T01:47:59.171Z,9.93
2024-05-09T01:50:37.135Z,9.57
2024-05-09T01:53:08.063Z,9.57
2024-05-09T01:55:34.787Z,9.93
2024-05-09T01:58:01.406Z,9.50
2024-05-09T02:00:37.917Z,11.35
2024-05-09T02:03:15.306Z,10.10
2024-05-09T02:05:45.469Z,9.95
2024-05-09T02:08:17.179Z,9.85
2024-05-09T02:10:46.469Z,9.32
2024-05-09T02:13:13.845Z,9.50
2024-05-09T02:15:40.404Z,9.50
2024-05-09T02:18:08.575Z,9.82
2024-05-09T02:20:37.979Z,9.43
2024-05-09T02:23:06.603Z,8.32
2024-05-09T02:25:33.908Z,9.20
2024-05-09T02:28:00.773Z,8.77
2024-05-09T02:30:37.887Z,7.80
2024-05-09T02:33:08.291Z,8.63
2024-05-09T02:35:35.917Z,8.48
2024-05-09T02:38:02.758Z,8.07
2024-05-09T02:40:36.421Z,8.32
2024-05-09T02:43:06.533Z,9.00
2024-05-09T02:45:33.529Z,7.88
2024-05-09T02:48:01.378Z,8.13
2024-05-09T02:50:34.650Z,8.43
2024-05-09T02:53:06.042Z,7.80
2024-05-09T02:55:33.093Z,7.88
2024-05-09T02:57:59.921Z,8.50
2024-05-09T03:00:35.061Z,8.88
2024-05-09T03:03:11.652Z,9.13
2024-05-09T03:05:42.587Z,8.35
2024-05-09T03:08:09.839Z,8.40
2024-05-09T03:10:38.608Z,8.13
2024-05-09T03:13:11.715Z,7.28
2024-05-09T03:15:38.476Z,7.70
2024-05-09T03:18:08.648Z,7.78
2024-05-09T03:20:36.492Z,7.90
2024-05-09T03:23:05.274Z,7.68
2024-05-09T03:25:32.311Z,7.07
2024-05-09T03:27:59.335Z,6.65
2024-05-09T03:30:38.003Z,6.85
2024-05-09T03:33:18.062Z,6.75
2024-05-09T03:35:48.144Z,6.70
2024-05-09T03:38:15.346Z,6.43
2024-05-09T03:40:46.692Z,6.88
2024-05-09T03:43:14.017Z,7.63
2024-05-09T03:45:40.630Z,6.65
2024-05-09T03:48:08.011Z,6.32
2024-05-09T03:50:36.262Z,7.07
2024-05-09T03:53:03.819Z,6.30
2024-05-09T03:55:31.001Z,7.35
2024-05-09T03:57:57.613Z,7.38
2024-05-09T04:00:31.365Z,6.50
2024-05-09T04:03:06.264Z,7.25
2024-05-09T04:05:35.016Z,7.47
2024-05-09T04:08:02.057Z,6.80
2024-05-09T04:10:33.461Z,6.85
2024-05-09T04:13:01.627Z,7.18
2024-05-09T04:15:28.297Z,7.40
2024-05-09T04:17:55.148Z,6.53
2024-05-09T04:20:32.931Z,6.28
2024-05-09T04:23:05.839Z,6.40
2024-05-09T04:25:32.837Z,6.60
2024-05-09T04:27:59.459Z,7.20
2024-05-09T04:30:34.836Z,6.00
2024-05-09T04:33:06.428Z,6.30
2024-05-09T04:35:33.923Z,6.53
2024-05-09T04:38:00.800Z,7.20
2024-05-09T04:40:33.245Z,6.82
2024-05-09T04:43:07.064Z,6.30
2024-05-09T04:45:34.138Z,6.82
2024-05-09T04:48:01.425Z,7.68
2024-05-09T04:50:36.151Z,6.40
2024-05-09T04:53:06.992Z,7.22
2024-05-09T04:55:35.544Z,7.50
2024-05-09T04:58:02.211Z,6.38
2024-05-09T05:00:35.792Z,6.93
2024-05-09T05:03:07.356Z,7.23
2024-05-09T05:05:38.041Z,8.20
2024-05-09T05:08:05.502Z,8.57
2024-05-09T05:10:36.122Z,12.10
2024-05-09T05:13:17.737Z,13.00
2024-05-09T05:15:55.600Z,12.10
2024-05-09T05:18:23.647Z,13.10
2024-05-09T05:20:50.389Z,14.70
2024-05-09T05:23:19.685Z,16.13
2024-05-09T05:25:48.289Z,16.33
2024-05-09T05:28:18.548Z,17.13
2024-05-09T05:30:45.553Z,16.42
2024-05-09T05:33:14.203Z,16.00
2024-05-09T05:35:42.198Z,16.98
2024-05-09T05:38:10.275Z,16.95
2024-05-09T05:40:38.678Z,15.48
2024-05-09T05:43:08.671Z,15.90
2024-05-09T05:45:35.798Z,16.02
2024-05-09T05:48:06.616Z,16.33
2024-05-09T05:50:37.098Z,16.90
2024-05-09T05:53:09.503Z,15.88
2024-05-09T05:55:40.754Z,16.80
2024-05-09T05:58:11.979Z,16.20
2024-05-09T06:00:41.470Z,16.27
2024-05-09T06:03:12.753Z,16.77
2024-05-09T06:05:40.800Z,16.85
2024-05-09T06:08:08.066Z,17.58
2024-05-09T06:10:38.962Z,18.35
2024-05-09T06:13:10.534Z,19.45
2024-05-09T06:15:37.319Z,20.75
2024-05-09T06:18:10.576Z,19.48
2024-05-09T06:20:39.605Z,21.08
2024-05-09T06:23:07.146Z,21.30
2024-05-09T06:25:34.531Z,20.45
2024-05-09T06:28:01.718Z,21.38
2024-05-09T06:30:35.266Z,20.98
2024-05-09T06:33:07.197Z,21.55
2024-05-09T06:35:34.306Z,21.10
2024-05-09T06:38:01.647Z,20.90
2024-05-09T06:40:36.390Z,20.15
2024-05-09T06:43:10.530Z,20.83
2024-05-09T06:45:39.905Z,19.88
2024-05-09T06:48:08.669Z,20.80
2024-05-09T06:50:38.089Z,19.88
2024-05-09T06:53:06.353Z,18.13
2024-05-09T06:55:33.145Z,16.60
2024-05-09T06:57:59.841Z,16.70
2024-05-09T07:00:34.634Z,19.17
2024-05-09T07:03:13.810Z,17.63
2024-05-09T07:05:43.187Z,18.08
2024-05-09T07:08:10.057Z,16.52
2024-05-09T07:10:37.237Z,16.27
2024-05-09T07:13:11.255Z,16.40
2024-05-09T07:15:38.267Z,16.42
2024-05-09T07:18:17.351Z,16.08
2024-05-09T07:20:45.659Z,15.23
2024-05-09T07:23:13.522Z,16.17
2024-05-09T07:25:41.254Z,15.07
2024-05-09T07:28:15.728Z,16.35
2024-05-09T07:30:43.328Z,15.50
2024-05-09T07:33:15.436Z,16.20
2024-05-09T07:35:42.193Z,15.38
2024-05-09T07:38:08.843Z,16.40
2024-05-09T07:40:37.108Z,15.98
2024-05-09T07:43:13.232Z,16.40
2024-05-09T07:45:50.486Z,16.02
2024-05-09T07:53:38.830Z,14.95
2024-05-09T07:56:09.107Z,15.38
2024-05-09T07:58:36.497Z,14.05
2024-05-09T08:01:03.152Z,14.68
2024-05-09T08:03:30.001Z,14.00
2024-05-09T08:05:56.887Z,13.20
2024-05-09T08:08:23.511Z,14.90
2024-05-09T08:10:51.069Z,13.70
2024-05-09T08:13:17.836Z,12.88
2024-05-09T08:15:44.566Z,12.75
2024-05-09T08:18:12.459Z,12.68
2024-05-09T08:20:40.290Z,12.43
2024-05-09T08:23:07.342Z,11.80
2024-05-09T08:25:33.992Z,10.60
2024-05-09T08:28:04.170Z,11.80
2024-05-09T08:30:36.503Z,10.55
2024-05-09T08:33:06.298Z,9.57
2024-05-09T08:35:33.862Z,9.90
2024-05-09T08:38:06.889Z,10.02
2024-05-09T08:40:36.459Z,9.00
2024-05-09T08:43:11.957Z,8.93
2024-05-09T08:45:43.571Z,9.10
2024-05-09T08:48:15.201Z,8.30
2024-05-09T08:50:45.116Z,7.63
2024-05-09T08:53:12.639Z,8.10
2024-05-09T08:55:43.016Z,7.03
2024-05-09T08:58:16.461Z,6.05
2024-05-09T09:00:44.090Z,6.25
2024-05-09T09:03:15.319Z,6.65
2024-05-09T09:05:58.452Z,6.25
2024-05-09T09:08:26.304Z,6.55
2024-05-09T09:10:58.336Z,5.40
2024-05-09T09:13:25.914Z,5.50
2024-05-09T09:18:27.555Z,5.40
2024-05-09T09:20:55.120Z,5.28
2024-05-09T09:23:21.970Z,5.28
2024-05-09T09:25:48.635Z,5.32
2024-05-09T09:28:15.632Z,4.50
2024-05-09T09:30:43.211Z,3.58
2024-05-09T09:33:10.648Z,3.78
2024-05-09T09:35:40.537Z,3.40
2024-05-09T09:38:12.835Z,3.97
2024-05-09T09:40:49.602Z,3.75
2024-05-09T09:43:21.960Z,3.75
2024-05-09T09:45:53.394Z,3.85
2024-05-09T09:48:22.755Z,3.70
2024-05-09T09:50:55.061Z,4.65
2024-05-09T09:53:23.368Z,3.80
2024-05-09T09:55:52.015Z,3.85
2024-05-09T09:58:19.277Z,3.53
2024-05-09T10:00:46.245Z,4.20
2024-05-09T10:03:13.163Z,3.45
2024-05-09T10:05:45.025Z,3.60
2024-05-09T10:08:14.974Z,4.28
2024-05-09T10:10:46.596Z,4.47
2024-05-09T10:13:14.670Z,5.38
2024-05-09T10:15:54.309Z,5.10
2024-05-09T10:18:27.251Z,4.75
2024-05-09T10:20:56.165Z,4.38
2024-05-09T10:23:33.376Z,4.32
2024-05-09T10:26:06.498Z,3.85
2024-05-09T10:28:39.276Z,3.55
2024-05-09T10:31:15.775Z,3.70
2024-05-09T10:33:49.362Z,3.70
2024-05-09T10:36:41.738Z,3.65
2024-05-09T10:39:08.663Z,3.03
2024-05-09T10:41:38.048Z,2.97
2024-05-09T10:44:11.920Z,3.15
2024-05-09T10:46:38.570Z,2.95
2024-05-09T10:49:07.855Z,2.92
2024-05-09T10:51:35.679Z,2.90
2024-05-09T10:54:02.363Z,2.83
2024-05-09T10:56:28.990Z,2.70
2024-05-09T10:58:55.571Z,3.30
2024-05-09T11:01:22.471Z,3.45
2024-05-09T11:03:49.858Z,2.78
2024-05-09T11:06:18.550Z,2.78
2024-05-09T11:08:46.847Z,3.00
2024-05-09T11:11:13.655Z,3.42
2024-05-09T11:13:41.061Z,2.95
2024-05-09T11:16:21.191Z,2.67
2024-05-09T11:18:56.233Z,3.20
2024-05-09T11:21:23.330Z,2.72
2024-05-09T11:23:51.223Z,3.05
2024-05-09T11:26:19.672Z,2.97
2024-05-09T11:28:46.533Z,3.58
2024-05-09T11:31:13.425Z,3.28
2024-05-09T11:33:43.105Z,2.95
2024-05-09T11:36:11.160Z,2.38
2024-05-09T11:38:37.888Z,1.92
2024-05-09T11:41:05.200Z,2.35
2024-05-09T11:43:31.916Z,2.30
2024-05-09T11:45:58.768Z,3.13
2024-05-09T11:48:26.464Z,2.65
2024-05-09T11:50:54.693Z,2.08
2024-05-09T11:53:21.366Z,2.22
2024-05-09T11:55:47.978Z,2.67
2024-05-09T11:58:17.162Z,3.22
2024-05-09T12:00:44.403Z,3.30
2024-05-09T12:03:12.178Z,2.90
2024-05-09T12:05:38.974Z,3.15
2024-05-09T12:08:06.358Z,3.65
2024-05-09T12:10:35.979Z,4.47
2024-05-09T12:13:05.683Z,4.20
2024-05-09T12:15:39.142Z,3.10
2024-05-09T12:18:08.018Z,2.40
2024-05-09T12:20:38.439Z,2.60
2024-05-09T12:23:08.920Z,2.67
2024-05-09T12:25:40.708Z,3.33
2024-05-09T12:28:08.273Z,3.13
2024-05-09T12:30:39.716Z,3.20
2024-05-09T12:33:09.017Z,2.90
2024-05-09T12:35:37.435Z,3.20
2024-05-09T12:38:04.582Z,2.58
2024-05-09T12:40:36.773Z,2.65
2024-05-09T12:43:09.080Z,2.92
2024-05-09T12:45:37.191Z,2.88
2024-05-09T12:48:06.879Z,2.75
2024-05-09T12:50:34.598Z,3.42
2024-05-09T12:53:02.831Z,3.22
2024-05-09T12:55:36.592Z,3.40
2024-05-09T12:58:09.156Z,2.85
2024-05-09T13:00:36.279Z,3.40
2024-05-09T13:03:03.284Z,3.17
2024-05-09T13:05:32.059Z,3.28
2024-05-09T13:07:58.907Z,3.35
2024-05-09T13:10:31.590Z,3.20
2024-05-09T13:13:00.237Z,3.40
2024-05-09T13:15:27.300Z,5.65
2024-05-09T13:17:55.819Z,7.50
2024-05-09T13:20:31.272Z,7.25
2024-05-09T13:23:01.678Z,7.43
2024-05-09T13:25:29.360Z,6.85
2024-05-09T13:27:56.969Z,6.50
2024-05-09T13:30:29.859Z,5.00
2024-05-09T13:33:06.103Z,5.45
2024-05-09T13:35:35.183Z,5.75
2024-05-09T13:38:02.737Z,6.03
2024-05-09T13:40:34.383Z,5.75
2024-05-09T13:43:03.676Z,5.82
2024-05-09T13:45:31.457Z,5.72
2024-05-09T13:47:59.893Z,5.47
2024-05-09T13:50:33.680Z,4.65
2024-05-09T13:53:05.605Z,4.70
2024-05-09T13:55:33.224Z,4.25
2024-05-09T13:58:00.649Z,5.35
2024-05-09T14:00:38.424Z,5.65
2024-05-09T14:03:11.647Z,6.03
2024-05-09T14:05:38.716Z,4.80
2024-05-09T14:08:06.031Z,5.35
2024-05-09T14:10:32.977Z,5.72
2024-05-09T14:13:00.738Z,5.30
2024-05-09T14:15:27.817Z,4.55
2024-05-09T14:17:55.813Z,4.57
2024-05-09T14:20:30.590Z,4.78
2024-05-09T14:23:00.408Z,5.18
2024-05-09T14:25:28.790Z,5.30
2024-05-09T14:27:57.660Z,4.85
2024-05-09T14:30:31.034Z,4.65
2024-05-09T14:33:03.875Z,4.10
2024-05-09T14:35:30.673Z,4.20
2024-05-09T14:37:57.237Z,4.15
2024-05-09T14:42:53.430Z,3.80
2024-05-09T14:45:20.096Z,4.03
2024-05-09T14:47:46.875Z,4.18
2024-05-09T14:50:23.252Z,4.35
2024-05-09T14:52:54.313Z,4.15
2024-05-09T14:55:21.120Z,3.85
2024-05-09T14:57:48.324Z,3.65
2024-05-09T15:00:24.760Z,3.28
2024-05-09T15:02:53.180Z,4.20
2024-05-09T15:05:20.147Z,4.60
2024-05-09T15:07:46.818Z,4.47
2024-05-09T15:10:23.811Z,4.63
2024-05-09T15:12:58.135Z,4.38
2024-05-09T15:15:24.805Z,3.90
2024-05-09T15:17:51.650Z,4.70
2024-05-09T15:20:26.847Z,4.93
2024-05-09T15:22:59.732Z,5.18
2024-05-09T15:25:26.963Z,5.20
2024-05-09T15:27:54.870Z,5.38
2024-05-09T15:32:53.150Z,4.45
2024-05-09T15:35:20.141Z,4.60
2024-05-09T15:37:48.505Z,4.32
2024-05-09T15:40:22.461Z,4.78
2024-05-09T15:42:57.990Z,5.40
2024-05-09T15:45:24.980Z,4.80
2024-05-09T15:47:51.641Z,4.72
2024-05-09T15:50:28.139Z,4.90
2024-05-09T15:53:03.143Z,4.78
2024-05-09T15:55:34.027Z,4.15
2024-05-09T15:58:02.643Z,4.80
2024-05-09T16:00:37.367Z,5.32
2024-05-09T16:03:07.961Z,5.20
2024-05-09T16:05:34.823Z,4.95
2024-05-09T16:08:01.841Z,4.80
2024-05-09T16:10:32.769Z,5.32
2024-05-09T16:13:01.267Z,5.32
2024-05-09T16:15:28.064Z,4.72
2024-05-09T16:17:56.237Z,5.32
2024-05-09T16:20:34.241Z,5.05
2024-05-09T16:23:06.382Z,5.00
2024-05-09T16:25:33.272Z,5.05
2024-05-09T16:28:00.385Z,4.65
2024-05-09T16:30:34.292Z,4.90
2024-05-09T16:33:04.279Z,4.40
2024-05-09T16:35:32.004Z,5.40
2024-05-09T16:37:58.877Z,4.82
2024-05-09T16:40:34.434Z,4.82
2024-05-09T16:43:05.862Z,4.95
2024-05-09T16:45:33.256Z,4.75
2024-05-09T16:48:00.703Z,5.03
2024-05-09T16:50:33.973Z,5.13
2024-05-09T16:53:04.628Z,4.53
2024-05-09T16:55:32.064Z,4.88
2024-05-09T16:57:59.109Z,4.82
2024-05-09T17:00:36.074Z,4.88
2024-05-09T17:03:08.989Z,5.35
2024-05-09T17:05:37.498Z,4.85
2024-05-09T17:08:04.970Z,4.30
2024-05-09T17:10:34.657Z,4.85
2024-05-09T17:13:03.599Z,4.13
2024-05-09T17:15:32.083Z,4.70
2024-05-09T17:18:00.066Z,4.10
2024-05-09T17:20:33.206Z,4.30
2024-05-09T17:23:05.543Z,4.85
2024-05-09T17:25:32.900Z,4.70
2024-05-09T17:28:06.175Z,4.45
2024-05-09T17:30:36.655Z,4.90
2024-05-09T17:33:08.774Z,4.70
2024-05-09T17:35:38.033Z,4.57
2024-05-09T17:38:06.606Z,4.97
2024-05-09T17:40:36.288Z,5.05
2024-05-09T17:43:09.371Z,4.90
2024-05-09T17:45:40.194Z,4.55
2024-05-09T17:48:08.493Z,4.75
2024-05-09T17:50:37.345Z,4.57
2024-05-09T17:53:08.297Z,3.97
2024-05-09T17:55:36.765Z,4.68
2024-05-09T17:58:05.525Z,4.68
2024-05-09T18:00:39.167Z,4.80
2024-05-09T18:03:10.684Z,5.00
2024-05-09T18:05:38.797Z,4.78
2024-05-09T18:08:07.232Z,4.78
2024-05-09T18:10:37.969Z,5.03
2024-05-09T18:13:10.927Z,4.30
2024-05-09T18:15:39.520Z,4.22
2024-05-09T18:18:08.799Z,4.45
2024-05-09T18:20:42.792Z,4.20
2024-05-09T18:25:43.866Z,4.05
2024-05-09T18:28:10.763Z,3.90
2024-05-09T18:30:39.127Z,4.07
2024-05-09T18:33:11.230Z,3.58
2024-05-09T18:35:39.098Z,4.60
2024-05-09T18:38:06.047Z,4.30
2024-05-09T18:40:36.821Z,3.60
2024-05-09T18:43:08.156Z,4.30
2024-05-09T18:45:38.431Z,4.68
2024-05-09T18:48:07.107Z,4.85
2024-05-09T18:50:37.930Z,5.07
2024-05-09T18:53:07.686Z,5.53
2024-05-09T18:55:36.381Z,5.22
2024-05-09T18:58:04.663Z,6.90
2024-05-09T19:00:36.082Z,5.72
2024-05-09T19:03:11.278Z,4.40
2024-05-09T19:05:43.268Z,4.30
2024-05-09T19:08:14.373Z,4.40
2024-05-09T19:10:41.252Z,4.68
2024-05-09T19:13:12.002Z,5.50
2024-05-09T19:15:42.797Z,4.63
2024-05-09T19:18:11.025Z,5.13
2024-05-09T19:20:38.278Z,5.07
2024-05-09T19:23:07.175Z,5.00
2024-05-09T19:25:34.938Z,5.07
2024-05-09T19:28:02.811Z,4.78
2024-05-09T19:30:38.224Z,4.65
2024-05-09T19:33:11.772Z,4.78
2024-05-09T19:35:39.430Z,5.45
2024-05-09T19:38:06.281Z,5.90
2024-05-09T19:40:34.495Z,5.20
2024-05-09T19:43:05.289Z,5.80
2024-05-09T19:45:35.402Z,5.10
2024-05-09T19:48:03.431Z,6.00
2024-05-09T19:50:37.888Z,6.50
2024-05-09T19:53:09.734Z,6.47
2024-05-09T19:55:38.957Z,6.53
2024-05-09T19:58:07.365Z,7.13
2024-05-09T20:00:37.880Z,6.35
2024-05-09T20:03:07.184Z,5.60
2024-05-09T20:05:36.013Z,6.05
2024-05-09T20:08:03.071Z,5.93
2024-05-09T20:10:32.820Z,5.72
2024-05-09T20:13:02.132Z,5.65
2024-05-09T20:15:30.707Z,6.85
2024-05-09T20:17:57.488Z,6.63
2024-05-09T20:20:35.946Z,6.80
2024-05-09T20:23:06.677Z,6.88
2024-05-09T20:25:33.317Z,6.45
2024-05-09T20:28:01.129Z,6.82
2024-05-09T20:30:32.281Z,6.30
2024-05-09T20:33:03.027Z,6.50
2024-05-09T20:35:32.743Z,6.50
2024-05-09T20:37:59.705Z,6.10
2024-05-09T20:40:32.607Z,7.57
2024-05-09T20:45:29.349Z,6.63
2024-05-09T20:47:56.268Z,6.35
2024-05-09T20:50:32.988Z,6.60
2024-05-09T20:53:08.686Z,6.88
2024-05-09T20:55:35.356Z,6.70
2024-05-09T20:58:01.959Z,6.78
2024-05-09T21:00:35.470Z,7.05
2024-05-09T21:03:07.901Z,6.75
2024-05-09T21:05:35.163Z,6.63
2024-05-09T21:08:04.397Z,6.60
2024-05-09T21:10:33.355Z,6.70
2024-05-09T21:13:02.883Z,6.80
2024-05-09T21:15:30.205Z,6.70
2024-05-09T21:17:56.968Z,6.47
2024-05-09T21:20:30.563Z,6.43
2024-05-09T21:22:58.877Z,6.65
2024-05-09T21:25:25.777Z,6.93
2024-05-09T21:27:53.630Z,7.60
2024-05-09T21:30:31.852Z,7.85
2024-05-09T21:33:08.005Z,6.88
2024-05-09T21:35:34.899Z,7.50
2024-05-09T21:38:01.488Z,7.50
2024-05-09T21:40:34.145Z,7.63
2024-05-09T21:43:04.607Z,7.60
2024-05-09T21:45:31.691Z,7.30
2024-05-09T21:47:58.442Z,7.78
2024-05-09T21:50:32.351Z,7.93
2024-05-09T21:53:05.796Z,7.50
2024-05-09T21:55:33.586Z,7.93
2024-05-09T21:58:02.754Z,7.97
2024-05-09T22:00:35.989Z,7.53
2024-05-09T22:03:06.533Z,8.43
2024-05-09T22:05:33.665Z,8.18
2024-05-09T22:08:00.702Z,8.30
2024-05-09T22:10:33.512Z,8.45
2024-05-09T22:13:03.435Z,11.10
2024-05-09T22:15:30.335Z,54.35
2024-05-09T22:17:57.594Z,49.03
2024-05-09T22:20:33.536Z,31.48
2024-05-09T22:23:04.506Z,12.02
2024-05-09T22:25:32.060Z,9.20
2024-05-09T22:27:59.397Z,7.95
2024-05-09T22:30:34.359Z,8.45
2024-05-09T22:33:05.750Z,8.73
2024-05-09T22:35:32.687Z,8.85
2024-05-09T22:37:59.331Z,7.43
2024-05-09T22:40:38.022Z,8.23
2024-05-09T22:43:12.758Z,8.75
2024-05-09T22:45:40.726Z,8.73
2024-05-09T22:48:08.470Z,8.95
2024-05-09T22:50:35.341Z,8.80
2024-05-09T22:53:02.213Z,10.07
2024-05-09T22:55:29.022Z,9.68
2024-05-09T22:57:55.842Z,10.13
2024-05-09T23:00:30.907Z,10.25
2024-05-09T23:05:26.693Z,9.00
2024-05-09T23:07:53.370Z,9.38
2024-05-09T23:10:27.476Z,9.25
2024-05-09T23:12:59.046Z,9.18
2024-05-09T23:15:25.756Z,8.93
2024-05-09T23:17:52.529Z,8.88
2024-05-09T23:20:29.778Z,9.23
2024-05-09T23:23:03.468Z,9.20
2024-05-09T23:25:30.091Z,9.10
2024-05-09T23:27:56.818Z,9.75
2024-05-09T23:30:33.193Z,9.52
2024-05-09T23:33:05.424Z,9.10
2024-05-09T23:35:32.139Z,9.13
2024-05-09T23:37:58.660Z,10.57
2024-05-09T23:40:36.848Z,9.07
2024-05-09T23:43:07.357Z,8.82
2024-05-09T23:45:34.824Z,9.32
2024-05-09T23:48:01.819Z,9.70
2024-05-09T23:50:35.780Z,8.50
2024-05-09T23:53:06.125Z,8.93
2024-05-09T23:55:33.630Z,8.60
2024-05-09T23:58:00.637Z,9.10
